sensor_id;sensor_type;location;lat;lon;timestamp;P1;durP1;ratioP1;P2;durP2;ratioP2
75550;SDS011;65071;53.082;18.218;2023-04-07T00:01:52;7.70;;;4.20;;
75550;SDS011;65071;53.082;18.218;2023-04-07T00:04:19;6.80;;;3.20;;
75550;SDS011;65071;53.082;18.218;2023-04-07T00:06:45;6.70;;;4.00;;
75550;SDS011;65071;53.082;18.218;2023-04-07T00:09:11;7.00;;;4.00;;
75550;SDS011;65071;53.082;18.218;2023-04-07T00:11:36;6.50;;;3.50;;
75550;SDS011;65071;53.082;18.218;2023-04-07T00:14:02;4.70;;;2.40;;
75550;SDS011;65071;53.082;18.218;2023-04-07T00:16:28;7.60;;;4.00;;
75550;SDS011;65071;53.082;18.218;2023-04-07T00:18:54;9.50;;;4.40;;
75550;SDS011;65071;53.082;18.218;2023-04-07T00:21:20;8.90;;;4.70;;
75550;SDS011;65071;53.082;18.218;2023-04-07T00:23:46;7.50;;;3.40;;
75550;SDS011;65071;53.082;18.218;2023-04-07T00:26:12;5.60;;;3.30;;
75550;SDS011;65071;53.082;18.218;2023-04-07T00:28:39;7.60;;;4.40;;
75550;SDS011;65071;53.082;18.218;2023-04-07T00:31:05;6.20;;;2.50;;
75550;SDS011;65071;53.082;18.218;2023-04-07T00:33:31;7.60;;;4.30;;
75550;SDS011;65071;53.082;18.218;2023-04-07T00:35:57;6.60;;;3.90;;
75550;SDS011;65071;53.082;18.218;2023-04-07T00:38:23;3.00;;;1.90;;
75550;SDS011;65071;53.082;18.218;2023-04-07T00:40:49;4.90;;;2.70;;
75550;SDS011;65071;53.082;18.218;2023-04-07T00:43:15;8.10;;;5.30;;
75550;SDS011;65071;53.082;18.218;2023-04-07T00:45:41;7.90;;;3.40;;
75550;SDS011;65071;53.082;18.218;2023-04-07T00:48:07;8.40;;;4.60;;
75550;SDS011;65071;53.082;18.218;2023-04-07T00:50:35;13.50;;;4.90;;
75550;SDS011;65071;53.082;18.218;2023-04-07T00:53:00;6.20;;;3.20;;
75550;SDS011;65071;53.082;18.218;2023-04-07T00:55:27;5.80;;;3.50;;
75550;SDS011;65071;53.082;18.218;2023-04-07T00:57:53;7.50;;;4.10;;
75550;SDS011;65071;53.082;18.218;2023-04-07T01:00:18;8.00;;;4.00;;
75550;SDS011;65071;53.082;18.218;2023-04-07T01:02:52;9.30;;;4.70;;
75550;SDS011;65071;53.082;18.218;2023-04-07T01:05:37;8.60;;;4.70;;
75550;SDS011;65071;53.082;18.218;2023-04-07T01:08:16;6.50;;;4.20;;
75550;SDS011;65071;53.082;18.218;2023-04-07T01:10:57;8.50;;;3.70;;
75550;SDS011;65071;53.082;18.218;2023-04-07T01:13:35;8.70;;;4.70;;
75550;SDS011;65071;53.082;18.218;2023-04-07T01:16:12;6.40;;;3.90;;
75550;SDS011;65071;53.082;18.218;2023-04-07T01:18:47;9.40;;;5.10;;
75550;SDS011;65071;53.082;18.218;2023-04-07T01:21:17;8.50;;;4.80;;
75550;SDS011;65071;53.082;18.218;2023-04-07T01:26:52;8.30;;;3.90;;
75550;SDS011;65071;53.082;18.218;2023-04-07T01:31:50;7.50;;;4.00;;
75550;SDS011;65071;53.082;18.218;2023-04-07T01:34:20;10.30;;;4.50;;
75550;SDS011;65071;53.082;18.218;2023-04-07T01:36:48;9.80;;;4.20;;
75550;SDS011;65071;53.082;18.218;2023-04-07T01:39:16;7.80;;;4.30;;
75550;SDS011;65071;53.082;18.218;2023-04-07T01:41:43;6.80;;;3.70;;
75550;SDS011;65071;53.082;18.218;2023-04-07T01:44:09;7.00;;;4.10;;
75550;SDS011;65071;53.082;18.218;2023-04-07T01:46:36;9.60;;;5.30;;
75550;SDS011;65071;53.082;18.218;2023-04-07T01:49:02;6.20;;;3.40;;
75550;SDS011;65071;53.082;18.218;2023-04-07T01:51:29;7.20;;;4.20;;
75550;SDS011;65071;53.082;18.218;2023-04-07T01:53:57;5.70;;;3.70;;
75550;SDS011;65071;53.082;18.218;2023-04-07T01:56:25;8.10;;;4.30;;
75550;SDS011;65071;53.082;18.218;2023-04-07T01:58:52;9.90;;;4.80;;
75550;SDS011;65071;53.082;18.218;2023-04-07T02:01:20;7.50;;;4.40;;
75550;SDS011;65071;53.082;18.218;2023-04-07T02:07:05;10.70;;;5.30;;
75550;SDS011;65071;53.082;18.218;2023-04-07T02:09:38;10.20;;;4.60;;
75550;SDS011;65071;53.082;18.218;2023-04-07T02:12:07;8.00;;;4.50;;
75550;SDS011;65071;53.082;18.218;2023-04-07T02:14:39;8.10;;;4.00;;
75550;SDS011;65071;53.082;18.218;2023-04-07T02:17:06;7.20;;;4.40;;
75550;SDS011;65071;53.082;18.218;2023-04-07T02:19:33;6.50;;;3.80;;
75550;SDS011;65071;53.082;18.218;2023-04-07T02:22:03;9.00;;;4.60;;
75550;SDS011;65071;53.082;18.218;2023-04-07T02:24:30;7.40;;;4.00;;
75550;SDS011;65071;53.082;18.218;2023-04-07T02:26:57;6.70;;;3.40;;
75550;SDS011;65071;53.082;18.218;2023-04-07T02:29:25;8.70;;;4.50;;
75550;SDS011;65071;53.082;18.218;2023-04-07T02:31:51;7.80;;;4.30;;
75550;SDS011;65071;53.082;18.218;2023-04-07T02:34:17;6.50;;;3.70;;
75550;SDS011;65071;53.082;18.218;2023-04-07T02:36:43;9.30;;;4.60;;
75550;SDS011;65071;53.082;18.218;2023-04-07T02:39:09;8.40;;;4.60;;
75550;SDS011;65071;53.082;18.218;2023-04-07T02:41:35;3.80;;;2.00;;
75550;SDS011;65071;53.082;18.218;2023-04-07T02:44:01;6.40;;;3.70;;
75550;SDS011;65071;53.082;18.218;2023-04-07T02:46:27;7.70;;;3.70;;
75550;SDS011;65071;53.082;18.218;2023-04-07T02:48:53;7.00;;;4.10;;
75550;SDS011;65071;53.082;18.218;2023-04-07T02:51:19;7.30;;;3.60;;
75550;SDS011;65071;53.082;18.218;2023-04-07T02:53:45;8.10;;;3.80;;
75550;SDS011;65071;53.082;18.218;2023-04-07T02:56:11;4.60;;;2.70;;
75550;SDS011;65071;53.082;18.218;2023-04-07T02:58:37;7.00;;;3.50;;
75550;SDS011;65071;53.082;18.218;2023-04-07T03:01:03;7.20;;;3.70;;
75550;SDS011;65071;53.082;18.218;2023-04-07T03:03:31;5.90;;;3.40;;
75550;SDS011;65071;53.082;18.218;2023-04-07T03:06:04;4.50;;;2.10;;
75550;SDS011;65071;53.082;18.218;2023-04-07T03:08:31;3.90;;;2.00;;
75550;SDS011;65071;53.082;18.218;2023-04-07T03:10:58;3.10;;;1.40;;
75550;SDS011;65071;53.082;18.218;2023-04-07T03:13:27;6.10;;;3.60;;
75550;SDS011;65071;53.082;18.218;2023-04-07T03:15:54;6.80;;;4.00;;
75550;SDS011;65071;53.082;18.218;2023-04-07T03:18:20;6.00;;;3.30;;
75550;SDS011;65071;53.082;18.218;2023-04-07T03:20:49;6.20;;;3.30;;
75550;SDS011;65071;53.082;18.218;2023-04-07T03:23:17;6.30;;;3.50;;
75550;SDS011;65071;53.082;18.218;2023-04-07T03:25:43;3.40;;;2.20;;
75550;SDS011;65071;53.082;18.218;2023-04-07T03:28:09;4.10;;;2.20;;
75550;SDS011;65071;53.082;18.218;2023-04-07T03:30:36;7.40;;;3.70;;
75550;SDS011;65071;53.082;18.218;2023-04-07T03:33:02;4.20;;;2.50;;
75550;SDS011;65071;53.082;18.218;2023-04-07T03:35:29;5.10;;;3.00;;
75550;SDS011;65071;53.082;18.218;2023-04-07T03:37:55;5.10;;;2.80;;
75550;SDS011;65071;53.082;18.218;2023-04-07T03:40:21;6.20;;;3.10;;
75550;SDS011;65071;53.082;18.218;2023-04-07T03:42:47;8.20;;;4.00;;
75550;SDS011;65071;53.082;18.218;2023-04-07T03:45:13;7.10;;;3.90;;
75550;SDS011;65071;53.082;18.218;2023-04-07T03:47:42;6.30;;;3.70;;
75550;SDS011;65071;53.082;18.218;2023-04-07T03:50:08;6.20;;;3.80;;
75550;SDS011;65071;53.082;18.218;2023-04-07T03:52:40;7.30;;;3.90;;
75550;SDS011;65071;53.082;18.218;2023-04-07T03:55:12;8.00;;;4.30;;
75550;SDS011;65071;53.082;18.218;2023-04-07T03:57:39;8.70;;;4.20;;
75550;SDS011;65071;53.082;18.218;2023-04-07T04:00:05;4.10;;;2.00;;
75550;SDS011;65071;53.082;18.218;2023-04-07T04:02:42;7.50;;;3.40;;
75550;SDS011;65071;53.082;18.218;2023-04-07T04:05:08;8.60;;;4.20;;
75550;SDS011;65071;53.082;18.218;2023-04-07T04:07:34;7.20;;;3.50;;
75550;SDS011;65071;53.082;18.218;2023-04-07T04:10:03;3.00;;;1.40;;
75550;SDS011;65071;53.082;18.218;2023-04-07T04:12:32;7.60;;;3.80;;
75550;SDS011;65071;53.082;18.218;2023-04-07T04:15:03;9.10;;;4.70;;
75550;SDS011;65071;53.082;18.218;2023-04-07T04:17:29;8.40;;;4.10;;
75550;SDS011;65071;53.082;18.218;2023-04-07T04:19:55;8.60;;;5.20;;
75550;SDS011;65071;53.082;18.218;2023-04-07T04:22:50;5.40;;;2.40;;
75550;SDS011;65071;53.082;18.218;2023-04-07T04:25:17;9.30;;;4.00;;
75550;SDS011;65071;53.082;18.218;2023-04-07T04:27:46;9.80;;;4.50;;
75550;SDS011;65071;53.082;18.218;2023-04-07T04:30:17;10.40;;;5.10;;
75550;SDS011;65071;53.082;18.218;2023-04-07T04:32:51;11.70;;;5.20;;
75550;SDS011;65071;53.082;18.218;2023-04-07T04:35:21;7.20;;;3.50;;
75550;SDS011;65071;53.082;18.218;2023-04-07T04:37:57;12.30;;;5.40;;
75550;SDS011;65071;53.082;18.218;2023-04-07T04:40:23;7.30;;;2.90;;
75550;SDS011;65071;53.082;18.218;2023-04-07T04:42:49;10.00;;;4.40;;
75550;SDS011;65071;53.082;18.218;2023-04-07T04:45:15;12.90;;;6.00;;
75550;SDS011;65071;53.082;18.218;2023-04-07T04:47:44;11.60;;;5.50;;
75550;SDS011;65071;53.082;18.218;2023-04-07T04:50:10;8.60;;;4.00;;
75550;SDS011;65071;53.082;18.218;2023-04-07T04:52:37;8.80;;;4.20;;
75550;SDS011;65071;53.082;18.218;2023-04-07T04:55:05;10.90;;;5.80;;
75550;SDS011;65071;53.082;18.218;2023-04-07T04:57:32;11.60;;;4.90;;
75550;SDS011;65071;53.082;18.218;2023-04-07T05:02:28;20.90;;;7.10;;
75550;SDS011;65071;53.082;18.218;2023-04-07T05:04:55;14.50;;;6.00;;
75550;SDS011;65071;53.082;18.218;2023-04-07T05:07:23;8.60;;;2.70;;
75550;SDS011;65071;53.082;18.218;2023-04-07T05:09:50;10.20;;;4.50;;
75550;SDS011;65071;53.082;18.218;2023-04-07T05:12:17;6.10;;;3.00;;
75550;SDS011;65071;53.082;18.218;2023-04-07T05:17:12;11.00;;;5.00;;
75550;SDS011;65071;53.082;18.218;2023-04-07T05:19:38;11.70;;;5.80;;
75550;SDS011;65071;53.082;18.218;2023-04-07T05:22:11;15.00;;;7.60;;
75550;SDS011;65071;53.082;18.218;2023-04-07T05:24:42;9.70;;;5.10;;
75550;SDS011;65071;53.082;18.218;2023-04-07T05:27:08;7.90;;;4.20;;
75550;SDS011;65071;53.082;18.218;2023-04-07T05:29:34;4.60;;;2.90;;
75550;SDS011;65071;53.082;18.218;2023-04-07T05:32:01;9.10;;;4.90;;
75550;SDS011;65071;53.082;18.218;2023-04-07T05:34:29;8.80;;;4.20;;
75550;SDS011;65071;53.082;18.218;2023-04-07T05:36:55;13.70;;;6.60;;
75550;SDS011;65071;53.082;18.218;2023-04-07T05:39:21;8.40;;;3.50;;
75550;SDS011;65071;53.082;18.218;2023-04-07T05:41:47;10.30;;;5.00;;
75550;SDS011;65071;53.082;18.218;2023-04-07T05:44:13;6.90;;;3.20;;
75550;SDS011;65071;53.082;18.218;2023-04-07T05:46:40;9.10;;;4.20;;
75550;SDS011;65071;53.082;18.218;2023-04-07T05:49:07;16.40;;;7.30;;
75550;SDS011;65071;53.082;18.218;2023-04-07T05:51:33;9.20;;;4.50;;
75550;SDS011;65071;53.082;18.218;2023-04-07T05:54:01;11.70;;;5.60;;
75550;SDS011;65071;53.082;18.218;2023-04-07T05:56:28;8.60;;;3.90;;
75550;SDS011;65071;53.082;18.218;2023-04-07T05:58:54;8.80;;;4.60;;
75550;SDS011;65071;53.082;18.218;2023-04-07T06:01:20;12.20;;;5.90;;
75550;SDS011;65071;53.082;18.218;2023-04-07T06:03:46;6.60;;;3.00;;
75550;SDS011;65071;53.082;18.218;2023-04-07T06:06:15;10.10;;;5.50;;
75550;SDS011;65071;53.082;18.218;2023-04-07T06:08:41;15.20;;;7.00;;
75550;SDS011;65071;53.082;18.218;2023-04-07T06:11:07;9.90;;;5.70;;
75550;SDS011;65071;53.082;18.218;2023-04-07T06:13:33;10.80;;;6.70;;
75550;SDS011;65071;53.082;18.218;2023-04-07T06:15:59;8.20;;;4.00;;
75550;SDS011;65071;53.082;18.218;2023-04-07T06:18:25;14.10;;;7.10;;
75550;SDS011;65071;53.082;18.218;2023-04-07T06:20:50;12.10;;;7.10;;
75550;SDS011;65071;53.082;18.218;2023-04-07T06:23:17;14.40;;;7.10;;
75550;SDS011;65071;53.082;18.218;2023-04-07T06:25:43;14.00;;;7.50;;
75550;SDS011;65071;53.082;18.218;2023-04-07T06:28:09;15.40;;;6.50;;
75550;SDS011;65071;53.082;18.218;2023-04-07T06:30:35;10.40;;;5.80;;
75550;SDS011;65071;53.082;18.218;2023-04-07T06:33:02;14.20;;;6.70;;
75550;SDS011;65071;53.082;18.218;2023-04-07T06:35:28;12.90;;;6.40;;
75550;SDS011;65071;53.082;18.218;2023-04-07T06:37:54;10.70;;;5.00;;
75550;SDS011;65071;53.082;18.218;2023-04-07T06:40:20;6.70;;;3.30;;
75550;SDS011;65071;53.082;18.218;2023-04-07T06:42:46;8.20;;;4.20;;
75550;SDS011;65071;53.082;18.218;2023-04-07T06:45:24;13.90;;;6.90;;
75550;SDS011;65071;53.082;18.218;2023-04-07T06:47:50;10.10;;;5.50;;
75550;SDS011;65071;53.082;18.218;2023-04-07T06:50:15;9.70;;;5.30;;
75550;SDS011;65071;53.082;18.218;2023-04-07T06:52:45;8.80;;;4.40;;
75550;SDS011;65071;53.082;18.218;2023-04-07T06:55:11;10.20;;;4.90;;
75550;SDS011;65071;53.082;18.218;2023-04-07T06:57:36;11.30;;;5.20;;
75550;SDS011;65071;53.082;18.218;2023-04-07T07:00:02;10.60;;;5.30;;
75550;SDS011;65071;53.082;18.218;2023-04-07T07:02:28;8.90;;;4.50;;
75550;SDS011;65071;53.082;18.218;2023-04-07T07:04:55;8.70;;;4.80;;
75550;SDS011;65071;53.082;18.218;2023-04-07T07:07:21;8.80;;;4.20;;
75550;SDS011;65071;53.082;18.218;2023-04-07T07:09:48;11.80;;;6.00;;
75550;SDS011;65071;53.082;18.218;2023-04-07T07:12:13;9.20;;;4.70;;
75550;SDS011;65071;53.082;18.218;2023-04-07T07:14:40;7.20;;;3.20;;
75550;SDS011;65071;53.082;18.218;2023-04-07T07:17:05;7.20;;;3.50;;
75550;SDS011;65071;53.082;18.218;2023-04-07T07:19:31;7.10;;;2.60;;
75550;SDS011;65071;53.082;18.218;2023-04-07T07:21:57;10.10;;;4.40;;
75550;SDS011;65071;53.082;18.218;2023-04-07T07:24:23;9.00;;;5.00;;
75550;SDS011;65071;53.082;18.218;2023-04-07T07:26:49;10.70;;;4.80;;
75550;SDS011;65071;53.082;18.218;2023-04-07T07:29:15;7.00;;;3.20;;
75550;SDS011;65071;53.082;18.218;2023-04-07T07:31:41;9.30;;;5.10;;
75550;SDS011;65071;53.082;18.218;2023-04-07T07:34:07;9.50;;;4.80;;
75550;SDS011;65071;53.082;18.218;2023-04-07T07:36:32;6.10;;;3.60;;
75550;SDS011;65071;53.082;18.218;2023-04-07T07:38:58;9.00;;;4.70;;
75550;SDS011;65071;53.082;18.218;2023-04-07T07:41:24;7.00;;;3.90;;
75550;SDS011;65071;53.082;18.218;2023-04-07T07:43:50;12.00;;;5.70;;
75550;SDS011;65071;53.082;18.218;2023-04-07T07:46:16;9.30;;;5.00;;
75550;SDS011;65071;53.082;18.218;2023-04-07T07:48:42;6.50;;;3.30;;
75550;SDS011;65071;53.082;18.218;2023-04-07T07:51:08;11.40;;;5.50;;
75550;SDS011;65071;53.082;18.218;2023-04-07T07:53:34;7.00;;;2.70;;
75550;SDS011;65071;53.082;18.218;2023-04-07T07:56:00;6.20;;;3.10;;
75550;SDS011;65071;53.082;18.218;2023-04-07T07:58:26;9.80;;;4.40;;
75550;SDS011;65071;53.082;18.218;2023-04-07T08:00:52;13.20;;;6.30;;
75550;SDS011;65071;53.082;18.218;2023-04-07T08:03:18;8.20;;;4.50;;
75550;SDS011;65071;53.082;18.218;2023-04-07T08:05:47;10.10;;;5.70;;
75550;SDS011;65071;53.082;18.218;2023-04-07T08:08:13;9.60;;;5.00;;
75550;SDS011;65071;53.082;18.218;2023-04-07T08:10:39;11.40;;;6.00;;
75550;SDS011;65071;53.082;18.218;2023-04-07T08:13:05;10.60;;;5.00;;
75550;SDS011;65071;53.082;18.218;2023-04-07T08:15:31;10.20;;;5.00;;
75550;SDS011;65071;53.082;18.218;2023-04-07T08:17:57;10.60;;;5.00;;
75550;SDS011;65071;53.082;18.218;2023-04-07T08:20:25;5.90;;;2.90;;
75550;SDS011;65071;53.082;18.218;2023-04-07T08:22:51;11.50;;;5.60;;
75550;SDS011;65071;53.082;18.218;2023-04-07T08:25:17;8.40;;;4.70;;
75550;SDS011;65071;53.082;18.218;2023-04-07T08:27:44;9.40;;;5.00;;
75550;SDS011;65071;53.082;18.218;2023-04-07T08:30:09;9.20;;;5.00;;
75550;SDS011;65071;53.082;18.218;2023-04-07T08:32:36;6.30;;;3.30;;
75550;SDS011;65071;53.082;18.218;2023-04-07T08:35:03;9.10;;;4.90;;
75550;SDS011;65071;53.082;18.218;2023-04-07T08:37:30;9.70;;;5.00;;
75550;SDS011;65071;53.082;18.218;2023-04-07T08:39:56;9.40;;;4.80;;
75550;SDS011;65071;53.082;18.218;2023-04-07T08:42:23;8.40;;;4.90;;
75550;SDS011;65071;53.082;18.218;2023-04-07T08:44:57;9.60;;;4.80;;
75550;SDS011;65071;53.082;18.218;2023-04-07T08:47:29;9.10;;;5.20;;
75550;SDS011;65071;53.082;18.218;2023-04-07T08:50:01;9.00;;;5.30;;
75550;SDS011;65071;53.082;18.218;2023-04-07T08:52:33;9.80;;;5.10;;
75550;SDS011;65071;53.082;18.218;2023-04-07T08:55:06;9.70;;;5.00;;
75550;SDS011;65071;53.082;18.218;2023-04-07T08:57:33;6.70;;;3.50;;
75550;SDS011;65071;53.082;18.218;2023-04-07T09:00:00;9.00;;;4.50;;
75550;SDS011;65071;53.082;18.218;2023-04-07T09:02:34;10.30;;;5.90;;
75550;SDS011;65071;53.082;18.218;2023-04-07T09:05:02;6.50;;;3.40;;
75550;SDS011;65071;53.082;18.218;2023-04-07T09:07:30;9.70;;;5.30;;
75550;SDS011;65071;53.082;18.218;2023-04-07T09:09:57;7.70;;;4.40;;
75550;SDS011;65071;53.082;18.218;2023-04-07T09:12:24;11.40;;;6.20;;
75550;SDS011;65071;53.082;18.218;2023-04-07T09:14:51;7.30;;;3.60;;
75550;SDS011;65071;53.082;18.218;2023-04-07T09:17:17;6.70;;;3.80;;
75550;SDS011;65071;53.082;18.218;2023-04-07T09:19:44;7.20;;;3.40;;
75550;SDS011;65071;53.082;18.218;2023-04-07T09:22:10;8.20;;;4.10;;
75550;SDS011;65071;53.082;18.218;2023-04-07T09:24:39;10.20;;;5.20;;
75550;SDS011;65071;53.082;18.218;2023-04-07T09:27:09;8.50;;;4.50;;
75550;SDS011;65071;53.082;18.218;2023-04-07T09:29:37;10.40;;;5.80;;
75550;SDS011;65071;53.082;18.218;2023-04-07T09:32:06;9.20;;;5.10;;
75550;SDS011;65071;53.082;18.218;2023-04-07T09:34:33;9.50;;;5.50;;
75550;SDS011;65071;53.082;18.218;2023-04-07T09:37:04;7.60;;;4.80;;
75550;SDS011;65071;53.082;18.218;2023-04-07T09:39:31;11.20;;;6.00;;
75550;SDS011;65071;53.082;18.218;2023-04-07T09:41:57;11.20;;;5.80;;
75550;SDS011;65071;53.082;18.218;2023-04-07T09:44:23;7.40;;;4.60;;
75550;SDS011;65071;53.082;18.218;2023-04-07T09:46:51;10.40;;;6.00;;
75550;SDS011;65071;53.082;18.218;2023-04-07T09:49:19;9.50;;;5.20;;
75550;SDS011;65071;53.082;18.218;2023-04-07T09:51:52;8.90;;;4.60;;
75550;SDS011;65071;53.082;18.218;2023-04-07T09:54:31;5.20;;;2.50;;
75550;SDS011;65071;53.082;18.218;2023-04-07T10:01:54;8.80;;;4.60;;
75550;SDS011;65071;53.082;18.218;2023-04-07T10:04:20;8.90;;;4.90;;
75550;SDS011;65071;53.082;18.218;2023-04-07T10:06:46;7.30;;;3.60;;
75550;SDS011;65071;53.082;18.218;2023-04-07T10:09:13;6.10;;;3.40;;
75550;SDS011;65071;53.082;18.218;2023-04-07T10:11:39;4.90;;;2.50;;
75550;SDS011;65071;53.082;18.218;2023-04-07T10:14:08;10.20;;;5.70;;
75550;SDS011;65071;53.082;18.218;2023-04-07T10:16:36;6.10;;;3.90;;
75550;SDS011;65071;53.082;18.218;2023-04-07T10:19:02;8.30;;;5.00;;
75550;SDS011;65071;53.082;18.218;2023-04-07T10:21:28;8.80;;;5.60;;
75550;SDS011;65071;53.082;18.218;2023-04-07T10:24:02;7.70;;;4.00;;
75550;SDS011;65071;53.082;18.218;2023-04-07T10:26:45;6.80;;;4.00;;
75550;SDS011;65071;53.082;18.218;2023-04-07T10:29:16;6.30;;;3.80;;
75550;SDS011;65071;53.082;18.218;2023-04-07T10:31:42;7.40;;;4.60;;
75550;SDS011;65071;53.082;18.218;2023-04-07T10:34:09;6.20;;;3.70;;
75550;SDS011;65071;53.082;18.218;2023-04-07T10:36:35;10.40;;;5.40;;
75550;SDS011;65071;53.082;18.218;2023-04-07T10:39:38;8.80;;;5.70;;
75550;SDS011;65071;53.082;18.218;2023-04-07T10:42:05;9.80;;;6.30;;
75550;SDS011;65071;53.082;18.218;2023-04-07T10:47:07;14.80;;;8.40;;
75550;SDS011;65071;53.082;18.218;2023-04-07T10:49:34;13.50;;;8.10;;
75550;SDS011;65071;53.082;18.218;2023-04-07T10:54:39;11.10;;;6.30;;
75550;SDS011;65071;53.082;18.218;2023-04-07T11:02:33;9.40;;;5.90;;
75550;SDS011;65071;53.082;18.218;2023-04-07T11:05:00;6.90;;;3.60;;
75550;SDS011;65071;53.082;18.218;2023-04-07T11:07:46;7.90;;;4.90;;
75550;SDS011;65071;53.082;18.218;2023-04-07T11:10:22;11.00;;;6.60;;
75550;SDS011;65071;53.082;18.218;2023-04-07T11:12:56;10.90;;;6.60;;
75550;SDS011;65071;53.082;18.218;2023-04-07T11:15:26;11.90;;;5.30;;
75550;SDS011;65071;53.082;18.218;2023-04-07T11:18:08;13.70;;;6.10;;
75550;SDS011;65071;53.082;18.218;2023-04-07T11:20:40;9.50;;;5.90;;
75550;SDS011;65071;53.082;18.218;2023-04-07T11:23:12;13.00;;;7.70;;
75550;SDS011;65071;53.082;18.218;2023-04-07T11:25:41;9.40;;;5.40;;
75550;SDS011;65071;53.082;18.218;2023-04-07T11:28:09;10.10;;;6.40;;
75550;SDS011;65071;53.082;18.218;2023-04-07T11:30:36;13.80;;;7.50;;
75550;SDS011;65071;53.082;18.218;2023-04-07T11:33:03;12.60;;;7.40;;
75550;SDS011;65071;53.082;18.218;2023-04-07T11:35:29;11.20;;;6.30;;
75550;SDS011;65071;53.082;18.218;2023-04-07T11:37:58;12.50;;;7.60;;
75550;SDS011;65071;53.082;18.218;2023-04-07T11:40:35;14.40;;;8.10;;
75550;SDS011;65071;53.082;18.218;2023-04-07T11:43:23;11.30;;;6.60;;
75550;SDS011;65071;53.082;18.218;2023-04-07T11:48:50;14.20;;;7.50;;
75550;SDS011;65071;53.082;18.218;2023-04-07T11:51:17;12.80;;;7.50;;
75550;SDS011;65071;53.082;18.218;2023-04-07T11:53:45;13.70;;;8.00;;
75550;SDS011;65071;53.082;18.218;2023-04-07T11:56:14;12.40;;;7.20;;
75550;SDS011;65071;53.082;18.218;2023-04-07T11:58:49;14.70;;;8.90;;
75550;SDS011;65071;53.082;18.218;2023-04-07T12:01:17;15.50;;;9.20;;
75550;SDS011;65071;53.082;18.218;2023-04-07T12:03:54;18.10;;;10.10;;
75550;SDS011;65071;53.082;18.218;2023-04-07T12:06:27;12.70;;;7.40;;
75550;SDS011;65071;53.082;18.218;2023-04-07T12:08:55;16.00;;;9.40;;
75550;SDS011;65071;53.082;18.218;2023-04-07T12:11:21;17.30;;;9.70;;
75550;SDS011;65071;53.082;18.218;2023-04-07T12:13:47;14.60;;;8.20;;
75550;SDS011;65071;53.082;18.218;2023-04-07T12:16:13;15.10;;;9.50;;
75550;SDS011;65071;53.082;18.218;2023-04-07T12:18:38;17.30;;;9.60;;
75550;SDS011;65071;53.082;18.218;2023-04-07T12:21:04;15.00;;;9.80;;
75550;SDS011;65071;53.082;18.218;2023-04-07T12:23:30;13.50;;;8.10;;
75550;SDS011;65071;53.082;18.218;2023-04-07T12:25:56;12.90;;;8.10;;
75550;SDS011;65071;53.082;18.218;2023-04-07T12:28:22;15.20;;;9.30;;
75550;SDS011;65071;53.082;18.218;2023-04-07T12:30:48;13.30;;;7.40;;
75550;SDS011;65071;53.082;18.218;2023-04-07T12:33:14;13.50;;;8.50;;
75550;SDS011;65071;53.082;18.218;2023-04-07T12:35:40;16.40;;;9.70;;
75550;SDS011;65071;53.082;18.218;2023-04-07T12:38:06;13.50;;;7.00;;
75550;SDS011;65071;53.082;18.218;2023-04-07T12:40:32;15.10;;;7.00;;
75550;SDS011;65071;53.082;18.218;2023-04-07T12:42:59;11.40;;;6.80;;
75550;SDS011;65071;53.082;18.218;2023-04-07T12:45:25;14.30;;;8.90;;
75550;SDS011;65071;53.082;18.218;2023-04-07T12:47:51;13.20;;;7.80;;
75550;SDS011;65071;53.082;18.218;2023-04-07T12:50:17;13.00;;;7.90;;
75550;SDS011;65071;53.082;18.218;2023-04-07T12:52:43;16.20;;;9.50;;
75550;SDS011;65071;53.082;18.218;2023-04-07T12:55:09;14.20;;;8.30;;
75550;SDS011;65071;53.082;18.218;2023-04-07T12:57:35;14.80;;;9.00;;
75550;SDS011;65071;53.082;18.218;2023-04-07T13:00:02;12.10;;;7.70;;
75550;SDS011;65071;53.082;18.218;2023-04-07T13:02:28;13.50;;;8.10;;
75550;SDS011;65071;53.082;18.218;2023-04-07T13:04:54;14.40;;;8.10;;
75550;SDS011;65071;53.082;18.218;2023-04-07T13:07:20;14.50;;;8.40;;
75550;SDS011;65071;53.082;18.218;2023-04-07T13:09:46;16.00;;;8.30;;
75550;SDS011;65071;53.082;18.218;2023-04-07T13:12:12;13.20;;;7.20;;
75550;SDS011;65071;53.082;18.218;2023-04-07T13:14:39;12.50;;;6.00;;
75550;SDS011;65071;53.082;18.218;2023-04-07T13:17:06;14.20;;;9.00;;
75550;SDS011;65071;53.082;18.218;2023-04-07T13:19:33;15.10;;;9.00;;
75550;SDS011;65071;53.082;18.218;2023-04-07T13:21:59;15.50;;;9.10;;
75550;SDS011;65071;53.082;18.218;2023-04-07T13:24:25;16.80;;;9.10;;
75550;SDS011;65071;53.082;18.218;2023-04-07T13:26:52;15.20;;;8.50;;
75550;SDS011;65071;53.082;18.218;2023-04-07T13:29:18;13.30;;;7.30;;
75550;SDS011;65071;53.082;18.218;2023-04-07T13:31:47;17.90;;;9.80;;
75550;SDS011;65071;53.082;18.218;2023-04-07T13:36:39;15.90;;;8.90;;
75550;SDS011;65071;53.082;18.218;2023-04-07T13:39:06;17.60;;;9.30;;
75550;SDS011;65071;53.082;18.218;2023-04-07T13:41:32;17.00;;;9.10;;
75550;SDS011;65071;53.082;18.218;2023-04-07T13:43:59;16.00;;;9.60;;
75550;SDS011;65071;53.082;18.218;2023-04-07T13:46:25;14.80;;;7.30;;
75550;SDS011;65071;53.082;18.218;2023-04-07T13:48:52;12.60;;;6.80;;
75550;SDS011;65071;53.082;18.218;2023-04-07T13:51:18;14.30;;;7.80;;
75550;SDS011;65071;53.082;18.218;2023-04-07T13:53:44;16.30;;;9.60;;
75550;SDS011;65071;53.082;18.218;2023-04-07T13:56:11;15.90;;;9.40;;
75550;SDS011;65071;53.082;18.218;2023-04-07T13:58:37;15.60;;;8.80;;
75550;SDS011;65071;53.082;18.218;2023-04-07T14:01:02;15.10;;;7.00;;
75550;SDS011;65071;53.082;18.218;2023-04-07T14:03:28;18.10;;;10.70;;
75550;SDS011;65071;53.082;18.218;2023-04-07T14:05:55;12.20;;;7.20;;
75550;SDS011;65071;53.082;18.218;2023-04-07T14:08:25;13.80;;;7.90;;
75550;SDS011;65071;53.082;18.218;2023-04-07T14:10:52;15.10;;;8.00;;
75550;SDS011;65071;53.082;18.218;2023-04-07T14:13:18;17.10;;;11.00;;
75550;SDS011;65071;53.082;18.218;2023-04-07T14:15:44;18.20;;;8.80;;
75550;SDS011;65071;53.082;18.218;2023-04-07T14:18:12;14.20;;;7.90;;
75550;SDS011;65071;53.082;18.218;2023-04-07T14:20:38;13.70;;;8.20;;
75550;SDS011;65071;53.082;18.218;2023-04-07T14:23:04;14.30;;;7.50;;
75550;SDS011;65071;53.082;18.218;2023-04-07T14:25:30;14.80;;;8.20;;
75550;SDS011;65071;53.082;18.218;2023-04-07T14:27:56;16.10;;;8.50;;
75550;SDS011;65071;53.082;18.218;2023-04-07T14:30:22;24.80;;;12.50;;
75550;SDS011;65071;53.082;18.218;2023-04-07T14:32:48;19.50;;;11.10;;
75550;SDS011;65071;53.082;18.218;2023-04-07T14:35:14;21.50;;;11.90;;
75550;SDS011;65071;53.082;18.218;2023-04-07T14:37:40;17.70;;;11.40;;
75550;SDS011;65071;53.082;18.218;2023-04-07T14:40:06;16.30;;;10.00;;
75550;SDS011;65071;53.082;18.218;2023-04-07T14:42:32;18.60;;;10.00;;
75550;SDS011;65071;53.082;18.218;2023-04-07T14:44:58;12.80;;;7.20;;
75550;SDS011;65071;53.082;18.218;2023-04-07T14:47:25;20.20;;;10.40;;
75550;SDS011;65071;53.082;18.218;2023-04-07T14:49:51;18.50;;;10.80;;
75550;SDS011;65071;53.082;18.218;2023-04-07T14:52:20;17.00;;;10.40;;
75550;SDS011;65071;53.082;18.218;2023-04-07T14:54:46;15.30;;;9.70;;
75550;SDS011;65071;53.082;18.218;2023-04-07T14:57:12;16.20;;;8.90;;
75550;SDS011;65071;53.082;18.218;2023-04-07T14:59:37;16.90;;;10.70;;
75550;SDS011;65071;53.082;18.218;2023-04-07T15:02:03;13.60;;;8.80;;
75550;SDS011;65071;53.082;18.218;2023-04-07T15:04:29;18.80;;;10.70;;
75550;SDS011;65071;53.082;18.218;2023-04-07T15:06:55;20.80;;;11.30;;